Time;durP1;ratioP1;P1;durP2;ratioP2;P2;SDS_P1;SDS_P2;PMS_P1;PMS_P2;Temp;Humidity;BMP_temperature;BMP_pressure;BME280_temperature;BME280_humidity;BME280_pressure;Samples;Min_cycle;Max_cycle;Signal;HPM_P1;HPM_P2
2022/03/09 00:00:29;;;;;;;7.13;3.05;;;4.50;62.10;;;4.25;44.44;101585.22;5208445;28;20050;-90
2022/03/09 00:03:01;;;;;;;9.40;4.05;;;4.50;61.90;;;4.19;44.54;101579.59;5208182;28;20060;-89
2022/03/09 00:05:33;;;;;;;7.70;3.45;;;4.50;61.70;;;4.26;44.65;101599.91;5207921;28;20064;-90
2022/03/09 00:08:07;;;;;;;11.93;4.68;;;4.60;61.80;;;4.20;44.08;101591.72;5209121;28;20053;-87
2022/03/09 00:10:54;;;;;;;10.32;4.50;;;4.60;61.50;;;4.25;44.28;101599.81;5264258;27;20373;-71
2022/03/09 00:13:26;;;;;;;10.07;4.03;;;4.60;61.60;;;4.24;44.63;101603.19;5243456;28;20051;-72
2022/03/09 00:15:58;;;;;;;5.95;3.15;;;4.50;61.70;;;4.26;44.77;101609.34;5243166;28;20417;-72
2022/03/09 00:18:30;;;;;;;12.02;3.60;;;4.50;62.20;;;4.23;45.37;101606.50;5242850;28;20053;-71
2022/03/09 00:21:02;;;;;;;10.00;3.78;;;4.50;62.80;;;4.16;45.50;101612.91;5243262;28;20052;-70
2022/03/09 00:23:34;;;;;;;8.27;3.63;;;4.40;63.50;;;4.04;46.15;101623.25;5243321;28;20044;-70
2022/03/09 00:26:08;;;;;;;7.18;3.13;;;4.30;64.00;;;3.93;46.25;101625.81;5241136;28;20045;-71
2022/03/09 00:28:40;;;;;;;9.70;4.15;;;4.20;64.20;;;3.84;47.00;101615.69;5230279;28;20500;-70
2022/03/09 00:31:11;;;;;;;9.02;3.58;;;4.10;65.20;;;3.73;47.24;101620.06;5240981;28;20045;-71
2022/03/09 00:33:43;;;;;;;8.60;3.60;;;4.00;65.80;;;3.62;47.92;101618.34;5227742;28;20051;-71
2022/03/09 00:36:15;;;;;;;11.55;3.53;;;3.90;66.20;;;3.54;47.71;101627.19;5222000;28;20053;-71
2022/03/09 00:38:47;;;;;;;7.47;3.97;;;3.80;66.30;;;3.51;47.54;101635.56;5237428;28;20052;-71
2022/03/09 00:41:21;;;;;;;11.45;4.03;;;3.70;66.60;;;3.52;47.16;101629.66;5242075;28;20068;-72
2022/03/09 00:43:53;;;;;;;7.00;3.47;;;3.70;65.70;;;3.56;46.93;101628.19;5240421;28;20045;-71
2022/03/09 00:46:24;;;;;;;8.40;3.38;;;3.80;65.10;;;3.62;46.30;101632.94;5243059;28;20053;-72
2022/03/09 00:48:56;;;;;;;9.38;3.60;;;3.90;64.50;;;3.71;46.34;101631.03;5242346;28;20056;-72
2022/03/09 00:51:28;;;;;;;9.65;3.65;;;4.00;65.00;;;3.77;46.34;101636.66;5243110;28;20070;-72
2022/03/09 00:54:00;;;;;;;7.32;3.15;;;4.00;64.80;;;3.81;46.47;101637.00;5242971;28;20063;-72
2022/03/09 00:56:34;;;;;;;7.07;3.30;;;4.00;64.80;;;3.84;45.80;101638.00;5243001;28;20049;-72
2022/03/09 00:59:06;;;;;;;6.70;3.25;;;4.10;64.20;;;3.89;45.18;101635.00;5242801;28;20076;-71
2022/03/09 01:01:38;;;;;;;8.18;3.30;;;4.10;63.40;;;3.94;44.74;101638.81;5242576;28;20057;-70
2022/03/09 01:04:10;;;;;;;9.60;3.78;;;4.20;63.00;;;4.01;44.60;101635.91;5243375;28;20048;-71
2022/03/09 01:06:42;;;;;;;8.23;3.47;;;4.20;62.90;;;4.07;44.95;101636.38;5242569;28;20044;-72
2022/03/09 01:09:14;;;;;;;10.40;3.80;;;4.30;62.80;;;4.13;44.79;101629.88;5242207;28;20413;-71
2022/03/09 01:11:47;;;;;;;10.07;3.42;;;4.30;62.60;;;4.16;44.55;101640.41;5242397;28;20052;-71
2022/03/09 01:14:19;;;;;;;9.73;3.42;;;4.40;62.70;;;4.22;43.96;101644.34;5242432;28;20048;-72
2022/03/09 01:16:51;;;;;;;9.07;3.65;;;4.40;62.10;;;4.24;44.23;101634.16;5242250;28;20059;-72
2022/03/09 01:19:23;;;;;;;6.28;3.13;;;4.40;62.30;;;4.29;43.89;101633.66;5242059;28;20390;-72
2022/03/09 01:21:56;;;;;;;10.00;3.40;;;4.50;62.10;;;4.30;43.71;101632.91;5230737;28;20055;-71
2022/03/09 01:24:28;;;;;;;6.55;3.25;;;4.50;62.00;;;4.30;44.22;101634.56;5228549;28;20059;-71
2022/03/09 01:27:01;;;;;;;9.85;3.78;;;4.50;62.40;;;4.27;44.40;101634.34;5228282;28;20135;-71
2022/03/09 01:29:33;;;;;;;10.70;3.58;;;4.50;62.60;;;4.20;44.74;101624.38;5228820;28;20405;-71
2022/03/09 01:32:06;;;;;;;7.07;3.45;;;4.40;63.00;;;4.12;44.97;101622.91;5228808;28;20053;-71
2022/03/09 01:34:38;;;;;;;7.72;3.40;;;4.40;63.10;;;4.07;45.08;101631.22;5228617;28;20079;-71
2022/03/09 01:37:10;;;;;;;7.18;3.70;;;4.30;63.10;;;4.03;44.62;101631.75;5227901;28;20516;-72
2022/03/09 01:39:42;;;;;;;8.50;3.67;;;4.30;62.80;;;4.03;44.96;101629.16;5228522;28;20500;-71
2022/03/09 01:42:15;;;;;;;8.82;3.60;;;4.30;63.40;;;3.98;46.09;101630.53;5228335;28;20413;-71
2022/03/09 01:44:47;;;;;;;8.93;3.65;;;4.20;64.60;;;3.88;46.53;101632.31;5228109;28;20045;-71
2022/03/09 01:47:19;;;;;;;9.00;3.70;;;4.10;65.10;;;3.74;46.80;101631.28;5227483;28;20049;-71
2022/03/09 01:49:51;;;;;;;7.10;3.20;;;4.00;65.60;;;3.60;47.36;101626.78;5228391;28;20072;-72
2022/03/09 01:52:24;;;;;;;8.57;3.95;;;3.90;66.90;;;3.44;48.57;101637.56;5228377;28;20414;-72
2022/03/09 01:54:56;;;;;;;9.80;3.17;;;3.70;68.10;;;3.31;48.80;101633.16;5228013;28;20410;-72
2022/03/09 01:57:31;;;;;;;10.43;4.13;;;3.60;68.90;;;3.15;49.44;101623.34;5227974;28;20049;-71
2022/03/09 02:00:06;;;;;;;9.15;3.58;;;3.40;69.60;;;3.03;50.24;101627.56;5227755;28;20064;-71
2022/03/09 02:02:38;;;;;;;9.15;3.28;;;3.30;71.00;;;2.94;50.54;101622.59;5227933;28;20051;-72
2022/03/09 02:05:10;;;;;;;6.55;3.35;;;3.20;71.50;;;2.85;50.91;101621.84;5227968;28;20494;-72
2022/03/09 02:10:32;;;;;;;8.90;3.83;;;3.00;73.10;;;2.65;51.89;101611.66;5227466;28;20052;-71
2022/03/09 02:13:06;;;;;;;7.57;3.70;;;2.90;74.10;;;2.57;52.27;101620.47;5227622;28;20049;-72
2022/03/09 02:15:38;;;;;;;10.05;4.43;;;2.80;74.80;;;2.50;52.14;101607.88;5227464;28;20140;-71
2022/03/09 02:18:10;;;;;;;10.57;3.65;;;2.80;75.30;;;2.45;52.45;101610.06;5227560;28;20517;-72
2022/03/09 02:20:45;;;;;;;12.93;4.28;;;2.70;75.80;;;2.40;53.07;101608.81;5227495;28;20068;-71
2022/03/09 02:23:18;;;;;;;10.73;3.40;;;2.70;76.70;;;2.36;52.73;101611.94;5227391;28;20053;-71
2022/03/09 02:25:50;;;;;;;11.85;3.72;;;2.60;77.10;;;2.30;53.47;101619.16;5227573;28;20071;-71
2022/03/09 02:28:22;;;;;;;9.57;3.42;;;2.50;77.60;;;2.24;53.19;101611.81;5227436;28;20399;-72
2022/03/09 02:30:55;;;;;;;8.35;3.78;;;2.50;78.50;;;2.21;53.37;101614.13;5227176;28;20051;-72
2022/03/09 02:33:27;;;;;;;8.45;3.55;;;2.50;79.50;;;2.18;54.23;101616.47;5226379;28;20114;-71
2022/03/09 02:35:59;;;;;;;10.48;3.85;;;2.40;80.20;;;2.13;54.27;101613.53;5227467;28;20052;-71
2022/03/09 02:38:33;;;;;;;7.97;3.95;;;2.40;81.10;;;2.12;54.59;101615.97;5226829;28;20485;-73
2022/03/09 02:41:04;;;;;;;9.02;3.33;;;2.40;81.20;;;2.13;54.39;101617.75;5227883;28;20045;-71
2022/03/09 02:43:36;;;;;;;9.25;3.70;;;2.40;81.80;;;2.12;54.22;101626.25;5227098;28;20049;-71
2022/03/09 02:46:08;;;;;;;7.22;2.97;;;2.40;81.80;;;2.11;54.23;101625.38;5226948;28;20045;-72
2022/03/09 02:48:40;;;;;;;7.07;2.92;;;2.30;82.20;;;2.09;54.16;101618.31;5226648;28;20045;-71
2022/03/09 02:51:12;;;;;;;6.82;2.97;;;2.30;82.60;;;2.06;54.56;101616.38;5227146;28;20064;-72
2022/03/09 02:53:46;;;;;;;8.15;3.20;;;2.30;83.40;;;2.02;54.82;101622.06;5226737;28;20053;-71
2022/03/09 02:56:18;;;;;;;6.80;3.42;;;2.30;84.40;;;1.98;54.66;101611.38;5226676;28;20067;-72
2022/03/09 02:58:50;;;;;;;8.57;3.40;;;2.20;84.70;;;1.97;54.56;101612.16;5226959;28;20079;-71
2022/03/09 03:01:22;;;;;;;5.78;3.20;;;2.20;85.10;;;1.95;54.63;101611.13;5226584;28;20055;-72
2022/03/09 03:03:54;;;;;;;11.30;3.55;;;2.20;85.50;;;1.93;55.07;101607.53;5226898;28;20406;-71
2022/03/09 03:06:26;;;;;;;8.63;3.75;;;2.20;85.50;;;1.94;54.75;101609.31;5226672;28;20399;-72
2022/03/09 03:08:59;;;;;;;9.57;2.92;;;2.20;86.30;;;1.94;54.86;101606.75;5226439;28;20057;-72
2022/03/09 03:11:31;;;;;;;8.60;3.83;;;2.10;86.50;;;1.90;54.98;101609.09;5226531;28;20049;-72
2022/03/09 03:14:03;;;;;;;6.43;3.13;;;2.10;86.10;;;1.89;54.17;101612.44;5226759;28;20478;-72
2022/03/09 03:16:35;;;;;;;6.93;3.30;;;2.10;85.90;;;1.84;54.31;101603.44;5226698;28;20483;-72
2022/03/09 03:19:07;;;;;;;9.43;4.20;;;2.10;86.70;;;1.78;55.39;101604.59;5225928;28;20056;-72
2022/03/09 03:21:39;;;;;;;11.95;3.55;;;2.10;87.90;;;1.74;55.26;101599.97;5226846;28;20045;-72
2022/03/09 03:24:12;;;;;;;9.05;3.65;;;2.00;88.90;;;1.67;55.56;101595.09;5226724;28;20045;-71
2022/03/09 03:26:44;;;;;;;8.20;3.33;;;2.00;90.00;;;1.67;56.52;101598.56;5226136;28;20046;-72
2022/03/09 03:29:16;;;;;;;9.60;3.10;;;1.90;90.40;;;1.65;56.13;101599.22;5225890;28;20049;-72
2022/03/09 03:31:48;;;;;;;10.43;3.53;;;1.90;90.40;;;1.62;56.39;101594.72;5226328;28;20049;-71
2022/03/09 03:34:20;;;;;;;9.23;3.38;;;1.90;90.60;;;1.60;56.53;101591.13;5226247;28;20044;-72
2022/03/09 03:36:52;;;;;;;10.35;4.00;;;1.90;91.00;;;1.57;56.63;101596.03;5226225;28;20049;-71
2022/03/09 03:39:26;;;;;;;7.43;3.38;;;1.80;91.20;;;1.53;56.28;101591.38;5225844;28;20064;-71
2022/03/09 03:41:58;;;;;;;9.63;2.95;;;1.80;91.40;;;1.47;56.67;101588.31;5226563;28;20480;-71
2022/03/09 03:44:30;;;;;;;7.85;3.33;;;1.80;91.60;;;1.42;57.35;101594.72;5226057;28;20500;-72
2022/03/09 03:47:02;;;;;;;8.65;3.67;;;1.70;92.20;;;1.39;57.55;101594.47;5225629;28;20619;-71
2022/03/09 03:49:34;;;;;;;9.15;3.33;;;1.70;92.50;;;1.34;57.80;101596.66;5226161;28;20055;-72
2022/03/09 03:52:07;;;;;;;9.05;3.55;;;1.60;92.80;;;1.30;58.00;101598.09;5225922;28;20052;-72
2022/03/09 03:54:40;;;;;;;7.05;3.42;;;1.60;93.20;;;1.25;57.91;101596.78;5225621;28;20064;-71
2022/03/09 03:57:12;;;;;;;8.73;3.33;;;1.50;93.40;;;1.25;58.32;101601.94;5225610;28;20049;-71
2022/03/09 03:59:44;;;;;;;8.75;3.63;;;1.50;94.00;;;1.25;58.02;101609.63;5226379;28;20055;-72
2022/03/09 04:02:16;;;;;;;8.25;3.33;;;1.60;94.00;;;1.26;57.38;101601.16;5226247;28;20049;-72
2022/03/09 04:04:50;;;;;;;8.52;3.30;;;1.50;93.40;;;1.33;56.40;101603.47;5225737;28;20044;-71
2022/03/09 04:07:22;;;;;;;9.23;3.25;;;1.60;91.50;;;1.49;56.12;101608.19;5225720;28;20524;-71
2022/03/09 04:09:55;;;;;;;13.73;3.60;;;1.70;91.60;;;1.57;55.46;101601.16;5225774;28;20505;-72
2022/03/09 04:12:27;;;;;;;8.93;3.50;;;1.80;91.60;;;1.57;55.96;101601.16;5226205;28;20044;-71
2022/03/09 04:14:59;;;;;;;6.70;3.13;;;1.80;91.70;;;1.54;56.25;101606.03;5225482;28;20045;-72
2022/03/09 04:17:40;;;;;;;7.95;3.17;;;1.80;92.00;;;1.50;56.04;101606.53;5225283;28;20064;-71
2022/03/09 04:20:14;;;;;;;8.05;3.42;;;1.80;92.00;;;1.46;56.75;101609.63;5225887;28;20055;-71
2022/03/09 04:22:46;;;;;;;7.70;3.33;;;1.70;92.20;;;1.42;56.75;101605.91;5225573;28;20534;-71
2022/03/09 04:25:19;;;;;;;9.18;3.22;;;1.70;92.30;;;1.40;56.89;101601.41;5225621;28;20516;-71
2022/03/09 04:27:51;;;;;;;11.38;3.35;;;1.70;92.40;;;1.38;56.09;101596.16;5225103;28;20501;-71
2022/03/09 04:30:23;;;;;;;9.52;3.88;;;1.60;92.00;;;1.43;56.32;101601.66;5225686;28;20053;-71
2022/03/09 04:32:55;;;;;;;6.70;3.80;;;1.70;91.80;;;1.48;55.67;101605.50;5225764;28;20064;-72
2022/03/09 04:35:27;;;;;;;8.18;3.88;;;1.70;91.50;;;1.50;55.11;101586.91;5225472;28;20055;-72
2022/03/09 04:37:59;;;;;;;7.57;3.00;;;1.80;90.90;;;1.52;55.00;101592.16;5225418;28;20053;-72
2022/03/09 04:40:32;;;;;;;6.07;3.17;;;1.80;90.20;;;1.57;53.97;101599.50;5225959;28;20048;-71
2022/03/09 04:43:04;;;;;;;9.85;3.55;;;1.90;89.20;;;1.63;53.70;101592.28;5225602;28;20501;-72
2022/03/09 04:45:36;;;;;;;9.80;3.42;;;2.00;88.40;;;1.62;53.58;101592.13;5225235;28;20053;-72
2022/03/09 04:48:08;;;;;;;7.28;3.20;;;2.00;86.80;;;1.68;52.59;101599.47;5225429;28;20053;-72
2022/03/09 04:50:41;;;;;;;8.52;3.88;;;2.00;85.20;;;1.73;52.48;101601.66;5225545;28;20041;-72
2022/03/09 04:53:13;;;;;;;8.43;3.45;;;2.10;85.30;;;1.79;52.23;101598.69;5225514;28;20198;-71
2022/03/09 04:55:46;;;;;;;8.93;2.78;;;2.10;84.20;;;1.83;51.89;101601.66;5226400;28;20490;-72
2022/03/09 04:58:18;;;;;;;6.05;3.33;;;2.20;84.00;;;1.87;51.62;101597.63;5229186;28;20077;-72
2022/03/09 05:00:50;;;;;;;6.70;3.03;;;2.20;82.20;;;1.96;51.58;101597.50;5229596;28;20041;-71
2022/03/09 05:03:22;;;;;;;6.22;3.50;;;2.30;82.30;;;2.00;50.84;101602.13;5228926;28;20413;-72
2022/03/09 05:05:54;;;;;;;5.50;2.90;;;2.40;81.30;;;2.05;51.11;101596.56;5229145;28;20482;-71
2022/03/09 05:08:26;;;;;;;6.00;3.28;;;2.40;81.00;;;2.09;50.89;101606.34;5228502;28;20045;-72
2022/03/09 05:10:59;;;;;;;7.55;3.10;;;2.40;80.40;;;2.10;50.42;101605.56;5229116;28;20045;-72
2022/03/09 05:13:31;;;;;;;7.15;3.35;;;2.40;80.10;;;2.12;50.51;101605.69;5228711;28;20163;-71
2022/03/09 05:16:05;;;;;;;8.07;3.78;;;2.50;79.50;;;2.13;50.02;101608.38;5229030;28;20166;-72
2022/03/09 05:18:40;;;;;;;9.35;3.50;;;2.50;79.00;;;2.17;50.28;101605.28;5228804;28;20060;-71
2022/03/09 05:21:12;;;;;;;10.40;3.53;;;2.50;79.40;;;2.17;50.04;101604.41;5228906;28;20087;-72
2022/03/09 05:23:45;;;;;;;4.75;2.80;;;2.50;78.30;;;2.15;49.91;101606.84;5229148;28;20049;-72
2022/03/09 05:26:18;;;;;;;8.43;3.17;;;2.60;77.90;;;2.14;49.63;101606.69;5228425;28;20059;-72
2022/03/09 05:28:50;;;;;;;9.77;3.22;;;2.60;77.10;;;2.14;49.25;101604.13;5228385;28;20045;-72
2022/03/09 05:31:22;;;;;;;11.27;3.30;;;2.60;77.00;;;2.17;49.24;101609.53;5228637;28;20500;-72
2022/03/09 05:33:54;;;;;;;9.65;3.35;;;2.60;76.80;;;2.18;49.68;101616.47;5228970;28;20055;-72
2022/03/09 05:36:26;;;;;;;6.75;3.13;;;2.60;77.00;;;2.18;49.56;101616.47;5242619;22;20409;-73
2022/03/09 05:38:58;;;;;;;8.82;3.25;;;2.60;77.00;;;2.16;49.61;101621.50;5229451;28;20045;-72
2022/03/09 05:41:33;;;;;;;7.63;3.30;;;2.60;76.70;;;2.20;49.42;101622.63;5228515;28;20045;-72
2022/03/09 05:44:06;;;;;;;8.50;3.42;;;2.60;76.90;;;2.18;49.19;101629.34;5228540;28;20056;-73
2022/03/09 05:46:38;;;;;;;10.43;3.47;;;2.60;76.70;;;2.18;49.64;101627.66;5228094;28;20052;-73
2022/03/09 05:49:10;;;;;;;8.52;3.08;;;2.60;76.80;;;2.18;49.48;101624.19;5228486;28;20520;-74
2022/03/09 05:51:42;;;;;;;10.48;3.97;;;2.50;77.00;;;2.17;50.04;101630.13;5228794;28;20052;-73
2022/03/09 05:54:14;;;;;;;9.10;3.80;;;2.60;77.40;;;2.16;49.56;101643.75;5228966;28;20056;-73
2022/03/09 05:56:48;;;;;;;8.32;4.10;;;2.60;77.10;;;2.13;49.45;101638.34;5228175;28;20049;-75
2022/03/09 05:59:20;;;;;;;9.15;3.13;;;2.60;76.70;;;2.18;49.60;101639.63;5228683;28;20056;-74
2022/03/09 06:01:52;;;;;;;6.70;3.03;;;2.60;76.80;;;2.18;49.53;101647.34;5228471;28;20045;-74
2022/03/09 06:04:23;;;;;;;7.32;3.83;;;2.60;76.40;;;2.21;49.16;101647.56;5228256;28;20382;-72
2022/03/09 06:06:55;;;;;;;7.93;3.22;;;2.60;76.40;;;2.23;49.32;101646.06;5228391;28;20048;-74
2022/03/09 06:09:27;;;;;;;7.95;3.65;;;2.60;76.30;;;2.24;49.12;101647.84;5228035;28;20060;-72
2022/03/09 06:12:01;;;;;;;9.75;3.60;;;2.60;76.10;;;2.27;48.92;101654.91;5228265;28;20053;-73
2022/03/09 06:14:33;;;;;;;7.38;3.20;;;2.70;76.00;;;2.29;49.22;101655.94;5228509;28;20049;-72
2022/03/09 06:17:05;;;;;;;9.75;3.38;;;2.70;76.10;;;2.31;48.88;101660.44;5228067;28;20045;-71
2022/03/09 06:19:40;;;;;;;7.50;3.70;;;2.70;75.80;;;2.35;48.79;101654.78;5228065;28;20401;-72
2022/03/09 06:22:12;;;;;;;6.72;3.33;;;2.70;75.60;;;2.40;48.67;101657.69;5228608;28;20041;-71
2022/03/09 06:24:44;;;;;;;8.10;3.28;;;2.80;75.40;;;2.43;48.55;101656.28;5228139;28;20501;-70
2022/03/09 06:27:17;;;;;;;7.25;3.00;;;2.80;75.30;;;2.47;48.87;101656.50;5227959;28;20049;-74
2022/03/09 06:29:49;;;;;;;8.55;3.42;;;2.80;75.30;;;2.83;48.93;101674.91;5228078;28;20070;-72
2022/03/09 06:32:21;;;;;;;8.73;3.13;;;3.00;75.50;;;3.42;47.69;101665.81;5227522;28;20048;-71
2022/03/09 06:34:55;;;;;;;6.40;2.83;;;3.30;75.40;;;4.05;46.48;101668.91;5227293;28;20055;-72
2022/03/09 06:37:27;;;;;;;8.45;3.40;;;3.80;73.90;;;4.96;44.91;101671.22;5226981;28;20512;-72
2022/03/09 06:40:00;;;;;;;5.88;3.40;;;4.40;72.70;;;5.68;43.59;101659.03;5227529;28;20421;-73
2022/03/09 06:42:34;;;;;;;7.60;3.72;;;4.90;71.10;;;6.38;42.45;101664.53;5210142;28;20490;-72
2022/03/09 06:45:07;;;;;;;7.47;3.70;;;5.50;68.40;;;6.62;40.85;101666.13;5227454;28;20135;-74
2022/03/09 06:47:39;;;;;;;9.50;3.65;;;5.90;66.70;;;6.86;40.81;101672.00;5226940;28;20375;-72
2022/03/09 06:50:12;;;;;;;8.60;3.80;;;6.20;64.80;;;7.06;39.84;101660.28;5227217;28;20075;-73
2022/03/09 06:52:45;;;;;;;9.38;3.78;;;6.50;63.20;;;7.07;39.27;101662.09;5227056;28;20482;-72
2022/03/09 06:55:17;;;;;;;9.07;3.95;;;6.60;61.60;;;7.21;38.84;101666.44;5227172;28;20460;-73
2022/03/09 06:57:50;;;;;;;9.70;4.22;;;6.70;61.10;;;7.91;37.30;101664.63;5226965;28;20041;-73
2022/03/09 07:00:22;;;;;;;7.35;3.60;;;7.10;59.60;;;9.41;35.75;101658.38;5227595;28;20470;-73
2022/03/09 07:02:56;;;;;;;7.82;4.45;;;8.00;59.00;;;11.16;32.99;101674.94;5227475;28;20483;-72
2022/03/09 07:05:28;;;;;;;10.02;4.10;;;9.20;56.50;;;12.37;30.66;101668.97;5227083;28;20053;-73
2022/03/09 07:08:00;;;;;;;15.75;4.70;;;10.30;53.80;;;13.39;28.91;101676.50;5227246;28;20142;-72
2022/03/09 07:10:32;;;;;;;9.63;4.38;;;11.30;50.40;;;14.10;27.56;101678.19;5227173;28;20477;-72
2022/03/09 07:13:05;;;;;;;10.02;4.68;;;12.10;48.20;;;14.52;26.42;101676.13;5226823;28;20059;-73
2022/03/09 07:15:37;;;;;;;10.00;4.40;;;12.70;46.20;;;14.96;25.52;101678.41;5226666;28;20059;-72
2022/03/09 07:18:09;;;;;;;8.02;3.88;;;13.20;45.10;;;15.24;25.11;101691.50;5226203;28;20057;-72
2022/03/09 07:20:41;;;;;;;9.55;3.90;;;13.60;44.20;;;15.03;25.00;101696.13;5226923;28;20048;-72
2022/03/09 07:23:13;;;;;;;9.68;4.10;;;13.70;43.40;;;14.66;25.00;101689.69;5226885;28;20477;-73
2022/03/09 07:25:45;;;;;;;9.57;4.05;;;13.60;42.80;;;14.68;25.00;101692.41;5226701;28;20051;-74
2022/03/09 07:28:19;;;;;;;8.00;3.88;;;13.60;42.90;;;15.55;24.91;101680.16;5225992;28;20045;-73
2022/03/09 07:30:51;;;;;;;9.68;4.22;;;14.00;43.50;;;16.46;23.79;101694.03;5226244;28;20052;-72
2022/03/09 07:33:23;;;;;;;9.38;4.20;;;14.50;42.70;;;16.72;23.07;101694.72;5226582;28;20049;-71
2022/03/09 07:35:56;;;;;;;10.63;5.45;;;14.70;41.60;;;16.83;22.81;101693.22;5226299;28;20053;-70
2022/03/09 07:38:28;;;;;;;9.13;5.25;;;14.90;41.30;;;17.25;22.77;101708.22;5225901;28;20445;-72
2022/03/09 07:41:00;;;;;;;8.57;4.65;;;15.20;41.40;;;17.61;22.15;101713.38;5226038;28;20063;-71
2022/03/09 07:43:34;;;;;;;10.27;5.28;;;15.60;40.60;;;16.90;23.20;101704.78;5226386;28;20044;-73
2022/03/09 07:46:06;;;;;;;11.93;5.00;;;15.30;41.90;;;17.47;22.46;101707.81;5226215;28;20151;-71
2022/03/09 07:48:38;;;;;;;10.43;5.18;;;15.70;41.40;;;18.19;21.80;101714.50;5225753;28;20156;-72
2022/03/09 07:51:10;;;;;;;12.02;5.05;;;16.10;40.30;;;18.08;21.44;101703.78;5225899;28;20053;-72
2022/03/09 07:53:43;;;;;;;6.57;3.55;;;16.20;39.40;;;18.81;27.68;101711.22;5226234;28;20071;-67
2022/03/09 07:56:15;;;;;;;8.98;4.20;;;16.70;48.30;;;19.83;25.69;101701.16;5226110;28;20049;-67
2022/03/09 07:58:49;;;;;;;5.80;3.08;;;17.60;46.50;;;20.23;24.00;101699.81;5225594;28;20060;-68
2022/03/09 08:01:21;;;;;;;7.90;4.53;;;18.10;43.70;;;20.58;20.67;101700.13;5225376;28;20409;-71
2022/03/09 08:03:54;;;;;;;10.32;4.55;;;18.50;38.90;;;20.54;19.59;101703.66;5225186;28;20045;-71
2022/03/09 08:06:26;;;;;;;10.65;4.45;;;18.40;37.50;;;20.04;19.71;101706.69;5225115;28;20140;-70
2022/03/09 08:08:58;;;;;;;8.98;3.80;;;18.10;37.30;;;19.32;20.00;101707.56;5224992;28;20228;-70
2022/03/09 08:11:31;;;;;;;6.85;3.85;;;17.40;37.20;;;19.16;20.52;101706.44;5225305;28;20132;-72
2022/03/09 08:14:04;;;;;;;8.93;4.15;;;17.20;38.00;;;19.66;20.09;101703.59;5225082;28;20045;-71
2022/03/09 08:16:37;;;;;;;8.85;4.72;;;17.50;38.00;;;19.91;19.97;101715.34;5225584;28;20446;-71
2022/03/09 08:19:09;;;;;;;8.45;4.38;;;17.60;38.20;;;20.32;19.39;101718.41;5225811;28;20049;-69
2022/03/09 08:21:41;;;;;;;11.18;4.30;;;17.80;37.40;;;20.52;18.99;101726.56;5226056;28;20049;-71
2022/03/09 08:24:13;;;;;;;9.85;4.47;;;18.10;37.20;;;20.48;19.21;101722.16;5225778;28;20048;-70
2022/03/09 08:26:45;;;;;;;9.82;4.95;;;18.10;37.20;;;20.51;18.76;101720.41;5225408;28;20500;-70
2022/03/09 08:29:18;;;;;;;10.07;4.47;;;18.30;36.60;;;20.55;18.94;101726.63;5225696;28;20099;-70
2022/03/09 08:31:50;;;;;;;9.43;4.43;;;18.30;36.70;;;20.26;19.29;101735.13;5228299;28;20132;-70
2022/03/09 08:34:22;;;;;;;9.25;5.15;;;18.20;36.80;;;19.73;19.25;101727.50;5230050;28;20491;-71
2022/03/09 08:36:54;;;;;;;10.18;4.90;;;17.90;37.00;;;20.05;19.58;101729.63;5229339;28;20067;-70
2022/03/09 08:39:27;;;;;;;8.68;4.60;;;18.00;37.00;;;20.04;19.35;101734.03;5229363;28;20080;-72
2022/03/09 08:41:59;;;;;;;9.93;4.57;;;18.00;36.90;;;20.04;19.37;101735.78;5229702;28;20041;-70
2022/03/09 08:44:33;;;;;;;7.57;4.13;;;18.10;36.90;;;20.12;19.39;101726.16;5230057;28;20086;-74
2022/03/09 08:47:09;;;;;;;9.95;4.97;;;18.10;37.00;;;20.23;19.27;101739.53;5229397;28;20056;-73
2022/03/09 08:49:41;;;;;;;9.25;4.57;;;18.20;36.80;;;19.88;19.77;101736.47;5229611;28;20076;-71
2022/03/09 08:52:13;;;;;;;13.02;5.05;;;18.00;37.00;;;19.94;19.61;101747.13;5229459;28;20056;-71
2022/03/09 08:54:45;;;;;;;10.00;4.82;;;18.00;37.10;;;19.87;19.71;101734.72;5229483;28;20048;-70
2022/03/09 08:57:17;;;;;;;8.82;4.70;;;18.00;37.00;;;19.86;19.60;101739.13;5229015;28;20045;-72
2022/03/09 08:59:51;;;;;;;6.10;3.67;;;18.10;37.00;;;19.67;19.81;101735.34;5229160;28;20052;-72
2022/03/09 09:02:23;;;;;;;11.45;5.60;;;18.00;36.90;;;19.05;20.37;101742.41;5229765;28;20041;-71
2022/03/09 09:04:55;;;;;;;9.70;5.25;;;17.70;36.90;;;18.59;20.56;101745.16;5229107;28;20049;-73
2022/03/09 09:07:27;;;;;;;8.15;4.30;;;17.40;37.20;;;18.49;22.30;101737.94;5229106;28;20049;-70
2022/03/09 09:09:59;;;;;;;12.50;6.32;;;17.50;40.10;;;18.23;21.65;101744.50;5228877;28;20055;-75
2022/03/09 09:12:31;;;;;;;13.35;5.28;;;17.40;38.20;;;17.80;22.07;101739.31;5228490;28;20049;-74
2022/03/09 09:15:05;;;;;;;9.82;5.13;;;17.20;38.30;;;17.23;22.70;101744.19;5221411;28;20425;-74
2022/03/09 09:17:41;;;;;;;9.55;5.30;;;16.90;38.60;;;16.68;23.37;101737.56;5207385;28;20426;-72
2022/03/09 09:20:14;;;;;;;9.15;4.32;;;16.50;38.90;;;16.46;23.50;101742.28;5229883;28;20542;-73
2022/03/09 09:22:46;;;;;;;10.52;4.45;;;16.20;39.30;;;16.57;27.11;101745.22;5248720;28;20432;-73
2022/03/09 09:25:18;;;;;;;9.75;4.50;;;16.20;44.70;;;16.63;23.52;101740.09;5215755;28;20571;-72
2022/03/09 09:27:50;;;;;;;11.05;4.60;;;16.30;39.50;;;16.24;23.65;101739.97;5207311;28;20516;-72
2022/03/09 09:30:26;;;;;;;10.45;4.47;;;16.00;39.40;;;15.94;23.50;101745.28;5208007;28;20052;-72
2022/03/09 09:32:59;;;;;;;9.85;4.32;;;15.70;39.20;;;15.73;24.11;101733.31;5207754;28;20053;-73
2022/03/09 09:35:31;;;;;;;9.70;5.10;;;15.50;39.90;;;15.22;24.26;101748.38;5207418;28;20065;-72
2022/03/09 09:38:08;;;;;;;10.43;4.93;;;15.20;39.70;;;15.07;24.68;101746.16;5206782;28;20045;-71
2022/03/09 09:40:45;;;;;;;10.30;4.80;;;14.90;40.30;;;14.95;24.86;101750.13;5207609;28;20061;-71
2022/03/09 09:43:17;;;;;;;10.70;5.95;;;14.70;40.70;;;14.62;25.26;101745.56;5207099;28;20406;-71
2022/03/09 09:45:52;;;;;;;10.07;4.90;;;14.50;40.60;;;14.49;26.04;101741.63;5207289;28;20056;-73
2022/03/09 09:48:24;;;;;;;8.65;4.32;;;14.40;41.80;;;14.27;27.57;101737.34;5207336;28;20136;-72
2022/03/09 09:50:57;;;;;;;9.90;5.40;;;14.20;44.30;;;14.44;26.43;101731.78;5207235;28;20049;-72
2022/03/09 09:53:30;;;;;;;9.93;4.72;;;14.20;42.70;;;14.64;26.63;101730.75;5208289;28;20042;-72
2022/03/09 09:56:03;;;;;;;12.73;4.97;;;14.30;43.00;;;14.44;25.50;101734.41;5223474;28;20049;-71
2022/03/09 09:58:37;;;;;;;9.32;4.47;;;14.20;41.20;;;14.50;26.40;101730.31;5225222;28;20143;-72
2022/03/09 10:01:11;;;;;;;8.23;4.75;;;14.30;42.00;;;14.64;25.76;101722.88;5227960;28;20045;-73
2022/03/09 10:03:43;;;;;;;9.73;5.07;;;14.30;41.70;;;14.71;25.86;101732.72;5224662;28;20049;-72
2022/03/09 10:06:15;;;;;;;11.43;5.45;;;14.30;41.70;;;14.82;25.38;101717.34;5227374;28;20053;-73
2022/03/09 10:09:01;;;;;;;11.13;5.38;;;14.40;41.40;;;14.96;25.18;101725.66;5218356;28;20417;-73
2022/03/09 10:11:51;;;;;;;14.55;6.50;;;14.50;41.20;;;14.86;25.33;101730.59;5227441;28;20049;-72
2022/03/09 10:14:43;;;;;;;11.02;4.88;;;14.40;41.10;;;14.81;25.31;101721.72;5227413;28;20239;-71
2022/03/09 10:17:18;;;;;;;13.23;5.22;;;14.40;41.20;;;14.78;25.28;101720.69;5227009;28;20787;-71
2022/03/09 10:19:54;;;;;;;10.02;4.53;;;14.40;41.40;;;14.25;25.32;101712.78;5227687;28;20055;-72
2022/03/09 10:22:30;;;;;;;12.15;4.90;;;14.20;40.90;;;14.09;25.93;101710.50;5227519;28;20131;-72
2022/03/09 10:25:18;;;;;;;9.35;5.00;;;14.00;41.60;;;14.21;27.04;101710.91;5227343;28;20444;-74
2022/03/09 10:27:52;;;;;;;11.68;5.38;;;14.00;43.20;;;14.37;26.20;101710.59;5226438;28;20053;-72
2022/03/09 10:30:31;;;;;;;9.93;4.82;;;14.00;42.40;;;14.41;26.19;101714.22;5220819;28;20044;-73
2022/03/09 10:33:06;;;;;;;9.15;4.82;;;14.10;42.20;;;14.57;27.47;101710.41;5219614;28;20482;-73
2022/03/09 10:35:47;;;;;;;9.80;4.93;;;14.20;43.70;;;14.61;26.07;101709.69;5225671;28;20049;-73
2022/03/09 10:38:27;;;;;;;8.60;4.68;;;14.30;42.00;;;14.70;25.98;101709.97;5219696;28;20064;-74
2022/03/09 10:41:05;;;;;;;10.82;4.88;;;14.30;42.00;;;14.67;25.59;101717.75;5226353;28;20041;-72
2022/03/09 10:43:37;;;;;;;12.10;5.68;;;14.30;41.30;;;14.49;25.39;101715.41;5226403;28;20514;-72
2022/03/09 10:46:12;;;;;;;11.20;5.68;;;14.20;41.30;;;14.47;25.48;101718.78;5226642;28;20051;-75